KTYR - Tyler, Texas, USA
Distance from station: WNW 10mi, 17km
Updated: Mon, 20-Aug-2018 2:53pm CDT
Few Clouds
Few Clouds
 Wind from WSW
Wind: WSW 14 mph , 22 km/h, Gust: 24 mph , 39 km/h
Temperature: 97°F , 36°C
Heat Index: 104°F , 40°C
Dew Point: 70°F , 21°C
Humidity: 42%
Barometer: 29.94 inHg , 1013.9 hPa
Clouds: Few Clouds
Visibility: 10 miles , 16 km
Cloud details: Few Clouds 5000 ft
2018/08/20 19:53 KTYR 201953Z 25012G21KT 10SM FEW050 36/21 A2994 RMK AO2 SLP130 T03610211
KRFI - Henderson Rusk C, Texas, USA
Distance from station: ESE 25mi, 40km
Updated: Mon, 20-Aug-2018 2:55pm CDT
Partly Cloudy
Partly Cloudy
 Wind from W
Wind: W 9 mph , 15 km/h, Gust: 23 mph , 37 km/h
Temperature: 95°F , 35°C
Heat Index: 103°F , 39°C
Dew Point: 72°F , 22°C
Humidity: 47%
Barometer: 29.95 inHg , 1014.2 hPa
Clouds: Partly Cloudy
Visibility: 10 miles , 16 km
Cloud details: Partly Cloudy 5000 ft
Partly Cloudy 7000 ft
2018/08/20 19:55 KRFI 201955Z AUTO 26008G20KT 10SM SCT050 SCT070 35/22 A2995 RMK AO2 T03500220
 
KJSO - Jacksonville, Texas, USA
Distance from station: S 30mi, 48km
Updated: Mon, 20-Aug-2018 2:55pm CDT
Mostly Cloudy
Mostly Cloudy
 Wind from W
Wind: W 9 mph , 15 km/h, Gust: 16 mph , 26 km/h
Temperature: 95°F , 35°C
Heat Index: 101°F , 38°C
Dew Point: 70°F , 21°C
Humidity: 44%
Barometer: 29.98 inHg , 1015.2 hPa
Clouds: Mostly Cloudy
Visibility: 10 miles , 16 km
Cloud details: Mostly Cloudy 5000 ft
Mostly Cloudy 6500 ft
Mostly Cloudy 8000 ft
2018/08/20 19:55 KJSO 201955Z AUTO 27008G14KT 10SM BKN050 BKN065 BKN080 35/21 A2998 RMK AO2 T03540214
KGGG - Longview, Texas, USA
Distance from station: ENE 31mi, 50km
Updated: Mon, 20-Aug-2018 2:53pm CDT
Mostly Cloudy
Mostly Cloudy
 Wind from W
Wind: W 18 mph , 30 km/h, Gust: 25 mph , 41 km/h
Temperature: 97°F , 36°C
Heat Index: 108°F , 42°C
Dew Point: 73°F , 23°C
Humidity: 47%
Barometer: 29.92 inHg , 1013.2 hPa
Clouds: Mostly Cloudy
Visibility: 10 miles , 16 km
Cloud details: Mostly Cloudy 5500 ft
2018/08/20 19:53 KGGG 201953Z 26016G22KT 10SM BKN055 36/23 A2992 RMK AO2 SLP122 T03610228
 
KJXI - Gilmer Muni, Texas, USA
Distance from station: NNE 33mi, 53km
Updated: Mon, 20-Aug-2018 2:55pm CDT

 
2018/08/20 19:55 KJXI 201955Z AUTO RMK AO2 PWINO PNO TSNO
KJDD - Mineola/Quitman, Texas, USA
Distance from station: NNW 35mi, 56km
Updated: Mon, 20-Aug-2018 2:55pm CDT
Clear
Clear
 Wind from NW
Wind: NW 13 mph , 20 km/h, Gust: 17 mph , 28 km/h
Temperature: 93°F , 34°C
Heat Index: 99°F , 37°C
Dew Point: 70°F , 21°C
Humidity: 47%
Barometer: 29.95 inHg , 1014.2 hPa
Clouds: Clear
Visibility: 10 miles , 16 km
2018/08/20 19:55 KJDD 201955Z AUTO 31011G15KT 260V330 10SM CLR 34/21 A2995 RMK AO2
 
KF44 - Athens, Texas, USA
Distance from station: WSW 36mi, 57km
Updated: Mon, 20-Aug-2018 2:55pm CDT
Clear
Clear
 Wind from W
Wind: W 6 mph , 9 km/h
Temperature: 93°F , 34°C
Heat Index: 99°F , 37°C
Dew Point: 70°F , 21°C
Humidity: 47%
Barometer: 29.95 inHg , 1014.2 hPa
Clouds: Clear
Visibility: 10 miles , 16 km
2018/08/20 19:55 KF44 201955Z AUTO 28005KT 10SM CLR 34/21 A2995 RMK AO2
KPSN - Palestine Muni, Texas, USA
Distance from station: SW 44mi, 71km
Updated: Mon, 20-Aug-2018 2:55pm CDT
Clear
Clear
 Wind from WSW
Wind: WSW 8 mph , 13 km/h, Gust: 20 mph , 31 km/h
Temperature: 97°F , 36°C
Dew Point: 68°F , 20°C
Humidity: 39%
Barometer: 29.97 inHg , 1014.9 hPa
Clouds: Clear
Visibility: 10 miles , 16 km
2018/08/20 19:55 KPSN 201955Z AUTO 25007G17KT 10SM CLR 36/20 A2997 RMK AO2 T03650207
 
KASL - Marshall, Texas, USA
Distance from station: ENE 57mi, 92km
Updated: Mon, 20-Aug-2018 2:55pm CDT
Partly Cloudy
Partly Cloudy
 Wind from WSW
Wind: WSW 10 mph , 17 km/h, Gust: 22 mph , 35 km/h
Temperature: 93°F , 34°C
Heat Index: 99°F , 37°C
Dew Point: 70°F , 21°C
Humidity: 47%
Barometer: 29.94 inHg , 1013.9 hPa
Clouds: Partly Cloudy
Visibility: 10 miles , 16 km
Cloud details: Partly Cloudy 5000 ft
Partly Cloudy 6000 ft
Partly Cloudy 8000 ft
2018/08/20 19:55 KASL 201955Z AUTO 24009G19KT 10SM SCT050 SCT060 SCT080 34/21 A2994 RMK AO1 T03380214
KOSA - Mount Pleasant, Texas, USA
Distance from station: NNE 58mi, 93km
Updated: Mon, 20-Aug-2018 2:55pm CDT
Clear
Clear
 Wind from WSW
Wind: WSW 10 mph , 17 km/h, Gust: 18 mph , 30 km/h
Temperature: 95°F , 35°C
Heat Index: 101°F , 38°C
Dew Point: 70°F , 21°C
Humidity: 44%
Barometer: 29.93 inHg , 1013.5 hPa
Clouds: Clear
Visibility: 10 miles , 16 km
2018/08/20 19:55 KOSA 201955Z AUTO 25009G16KT 10SM CLR 35/21 A2993 RMK AO1 T03530213
 
KOCH - Nacogdoches, Texas, USA
Distance from station: SSE 59mi, 95km
Updated: Mon, 20-Aug-2018 2:56pm CDT

 Wind from W
Wind: W 14 mph , 22 km/h, Gust: 18 mph , 30 km/h
Temperature: 99°F , 37°C
Heat Index: 109°F , 43°C
Dew Point: 72°F , 22°C
Humidity: 42%
Visibility: 10 miles , 16 km
2018/08/20 19:56 KOCH 201956Z AUTO 27012G16KT 10SM 37/22 RMK AO2 SLPNO T03670222 $
KSLR - Sulphur Springs, Texas, USA
Distance from station: NNW 64mi, 103km
Updated: Mon, 20-Aug-2018 2:55pm CDT
Clear
Clear
 Wind from WNW
Wind: WNW 12 mph , 19 km/h, Gust: 17 mph , 28 km/h
Temperature: 93°F , 34°C
Dew Point: 63°F , 17°C
Humidity: 36%
Barometer: 29.98 inHg , 1015.2 hPa
Clouds: Clear
Visibility: 10 miles , 16 km
2018/08/20 19:55 KSLR 201955Z AUTO 30010G15KT 10SM CLR 34/17 A2998 RMK AO2 T03350168
 
KTRL - Terrell, Texas, USA
Distance from station: WNW 66mi, 107km
Updated: Mon, 20-Aug-2018 2:53pm CDT
Clear
Clear
 Wind from NW
Wind: NW 9 mph , 15 km/h
Temperature: 90°F , 32°C
Heat Index: 92°F , 33°C
Dew Point: 64°F , 18°C
Humidity: 43%
Barometer: 29.97 inHg , 1014.9 hPa
Clouds: Clear
Visibility: 10 miles , 16 km
2018/08/20 19:53 KTRL 201953Z AUTO 31008KT 10SM CLR 32/18 A2997 RMK AO2 SLP141 T03220178
KCRS - Corsicana, Texas, USA
Distance from station: WSW 70mi, 113km
Updated: Mon, 20-Aug-2018 2:53pm CDT
Clear
Clear
 Wind from WNW
Wind: WNW 12 mph , 19 km/h
Temperature: 95°F , 35°C
Heat Index: 101°F , 38°C
Dew Point: 70°F , 21°C
Humidity: 44%
Barometer: 29.97 inHg , 1014.9 hPa
Clouds: Clear
Visibility: 10 miles , 16 km
2018/08/20 19:53 KCRS 201953Z AUTO 29010KT 10SM CLR 35/21 A2997 RMK AO2 SLP143 T03500211
 
KGVT - Greenville/Major, Texas, USA
Distance from station: NW 72mi, 115km
Updated: Mon, 20-Aug-2018 2:50pm CDT
Clear
Clear
 Wind from W
Wind: W 15 mph , 24 km/h
Temperature: 93°F , 34°C
Dew Point: 61°F , 16°C
Humidity: 34%
Barometer: 29.97 inHg , 1014.9 hPa
Clouds: Clear
Visibility: 10 miles , 16 km
2018/08/20 19:50 KGVT 201950Z AUTO 27013KT 10SM CLR 34/16 A2997 RMK AO2

Metar display script from Saratoga-Weather.org